VOZ12P VTBS-VTSM
Flight info
| Callsign | VOZ12P |
|---|---|
| Flight time | 0h 51m |
| Altitude | 31000 |
| Route | KASNI1J KASNI M757 MABKO W33 UPNEP |
| Aircraft | B738/M-SDE2E3FGHIRWXY/LB1 |
Departure
| Time | 2026-05-08 10:41 |
|---|---|
| Airport | Suvarnabhumi Airport (VTBS) |
Arrival
| Time | 2026-05-08 11:32 |
|---|---|
| Airport | Samui International Airport (VTSM) |
| Time | Latitude | Longitude | Altitude | Speed | Heading |
|---|---|---|---|---|---|
| 2026-05-08 10:32 | 13.68978 | 100.75272 | 14 ft | 0 kts | 283° |
| 2026-05-08 10:36 | 13.68972 | 100.75238 | 14 ft | 9 kts | 232° |
| 2026-05-08 10:36 | 13.68889 | 100.75211 | 12 ft | 15 kts | 193° |
| 2026-05-08 10:36 | 13.68785 | 100.75185 | 12 ft | 16 kts | 193° |
| 2026-05-08 10:37 | 13.68681 | 100.75159 | 12 ft | 15 kts | 194° |
| 2026-05-08 10:37 | 13.68589 | 100.75158 | 12 ft | 13 kts | 141° |
| 2026-05-08 10:37 | 13.68557 | 100.75249 | 12 ft | 15 kts | 105° |
| 2026-05-08 10:37 | 13.68530 | 100.75353 | 14 ft | 15 kts | 104° |
| 2026-05-08 10:38 | 13.68507 | 100.75450 | 12 ft | 14 kts | 104° |
| 2026-05-08 10:38 | 13.68484 | 100.75543 | 12 ft | 13 kts | 105° |
| 2026-05-08 10:38 | 13.68459 | 100.75635 | 12 ft | 14 kts | 105° |
| 2026-05-08 10:38 | 13.68468 | 100.75726 | 13 ft | 13 kts | 46° |
| 2026-05-08 10:39 | 13.68565 | 100.75753 | 13 ft | 18 kts | 15° |
| 2026-05-08 10:39 | 13.68717 | 100.75794 | 13 ft | 26 kts | 13° |
| 2026-05-08 10:39 | 13.68902 | 100.75842 | 12 ft | 29 kts | 14° |
| 2026-05-08 10:39 | 13.69094 | 100.75892 | 12 ft | 23 kts | 15° |
| 2026-05-08 10:40 | 13.69202 | 100.75941 | 12 ft | 13 kts | 66° |
| 2026-05-08 10:40 | 13.69191 | 100.76030 | 13 ft | 12 kts | 110° |
| 2026-05-08 10:40 | 13.69128 | 100.76077 | 11 ft | 11 kts | 167° |
| 2026-05-08 10:40 | 13.68993 | 100.76059 | 13 ft | 44 kts | 193° |
| 2026-05-08 10:41 | 13.68401 | 100.75903 | 13 ft | 129 kts | 194° |
| 2026-05-08 10:41 | 13.67318 | 100.75608 | 282 ft | 177 kts | 194° |
| 2026-05-08 10:41 | 13.66174 | 100.75296 | 1480 ft | 170 kts | 192° |
| 2026-05-08 10:41 | 13.64975 | 100.75125 | 2346 ft | 183 kts | 178° |
| 2026-05-08 10:42 | 13.63593 | 100.75187 | 2693 ft | 215 kts | 176° |
| 2026-05-08 10:42 | 13.62053 | 100.75241 | 3112 ft | 231 kts | 175° |
| 2026-05-08 10:42 | 13.60408 | 100.75331 | 3713 ft | 245 kts | 174° |
| 2026-05-08 10:42 | 13.58674 | 100.75664 | 4217 ft | 264 kts | 161° |
| 2026-05-08 10:43 | 13.56873 | 100.76224 | 5005 ft | 272 kts | 160° |
| 2026-05-08 10:43 | 13.55085 | 100.76802 | 6111 ft | 267 kts | 160° |
| 2026-05-08 10:43 | 13.53317 | 100.77358 | 7066 ft | 266 kts | 161° |
| 2026-05-08 10:43 | 13.51504 | 100.77883 | 7779 ft | 277 kts | 162° |
| 2026-05-08 10:44 | 13.49609 | 100.78404 | 8475 ft | 284 kts | 163° |
| 2026-05-08 10:44 | 13.47704 | 100.78941 | 9372 ft | 286 kts | 162° |
| 2026-05-08 10:44 | 13.45753 | 100.79497 | 9857 ft | 293 kts | 162° |
| 2026-05-08 10:44 | 13.43751 | 100.80077 | 10008 ft | 309 kts | 162° |
| 2026-05-08 10:45 | 13.41647 | 100.80694 | 10304 ft | 313 kts | 162° |
| 2026-05-08 10:45 | 13.39589 | 100.81305 | 10374 ft | 308 kts | 162° |
| 2026-05-08 10:45 | 13.37501 | 100.81791 | 10463 ft | 306 kts | 176° |
| 2026-05-08 10:45 | 13.35348 | 100.81645 | 10638 ft | 319 kts | 183° |
| 2026-05-08 10:46 | 13.33112 | 100.81515 | 11303 ft | 323 kts | 180° |
| 2026-05-08 10:46 | 13.30847 | 100.81475 | 11673 ft | 331 kts | 178° |
| 2026-05-08 10:46 | 13.28566 | 100.81297 | 11532 ft | 328 kts | 194° |
| 2026-05-08 10:46 | 13.26544 | 100.80310 | 11532 ft | 318 kts | 210° |
| 2026-05-08 10:47 | 13.24712 | 100.79086 | 11543 ft | 310 kts | 212° |
| 2026-05-08 10:47 | 13.22916 | 100.77851 | 11558 ft | 314 kts | 212° |
| 2026-05-08 10:47 | 13.21039 | 100.76565 | 11783 ft | 333 kts | 212° |
| 2026-05-08 10:47 | 13.19136 | 100.75270 | 12861 ft | 322 kts | 212° |
| 2026-05-08 10:48 | 13.17274 | 100.74010 | 13804 ft | 321 kts | 212° |
| 2026-05-08 10:48 | 13.15396 | 100.72747 | 14457 ft | 325 kts | 212° |
| 2026-05-08 10:48 | 13.13492 | 100.71470 | 15111 ft | 329 kts | 212° |
| 2026-05-08 10:48 | 13.11568 | 100.70181 | 15801 ft | 332 kts | 212° |
| 2026-05-08 10:49 | 13.09653 | 100.68900 | 16477 ft | 334 kts | 211° |
| 2026-05-08 10:49 | 13.07546 | 100.67902 | 17119 ft | 336 kts | 191° |
| 2026-05-08 10:49 | 13.05225 | 100.67641 | 17821 ft | 337 kts | 182° |
| 2026-05-08 10:49 | 13.02876 | 100.67566 | 18432 ft | 340 kts | 180° |
| 2026-05-08 10:50 | 13.00499 | 100.67530 | 18979 ft | 344 kts | 180° |
| 2026-05-08 10:50 | 12.98096 | 100.67499 | 19541 ft | 347 kts | 180° |
| 2026-05-08 10:50 | 12.95669 | 100.67462 | 20106 ft | 350 kts | 180° |
| 2026-05-08 10:50 | 12.93222 | 100.67417 | 20668 ft | 354 kts | 180° |
| 2026-05-08 10:51 | 12.90751 | 100.67364 | 21228 ft | 357 kts | 180° |
| 2026-05-08 10:51 | 12.88260 | 100.67306 | 21788 ft | 360 kts | 180° |
| 2026-05-08 10:51 | 12.85748 | 100.67244 | 22343 ft | 363 kts | 181° |
| 2026-05-08 10:51 | 12.83207 | 100.67179 | 22879 ft | 367 kts | 181° |
| 2026-05-08 10:52 | 12.80644 | 100.67113 | 23424 ft | 370 kts | 181° |
| 2026-05-08 10:52 | 12.78058 | 100.67046 | 23840 ft | 374 kts | 181° |
| 2026-05-08 10:52 | 12.75450 | 100.66978 | 24284 ft | 376 kts | 181° |
| 2026-05-08 10:52 | 12.72821 | 100.66909 | 24703 ft | 380 kts | 181° |
| 2026-05-08 10:53 | 12.70170 | 100.66840 | 25124 ft | 383 kts | 181° |
| 2026-05-08 10:53 | 12.67503 | 100.66770 | 25587 ft | 385 kts | 180° |
| 2026-05-08 10:53 | 12.64819 | 100.66700 | 26004 ft | 388 kts | 180° |
| 2026-05-08 10:53 | 12.62106 | 100.66630 | 26382 ft | 392 kts | 181° |
| 2026-05-08 10:54 | 12.59362 | 100.66558 | 26753 ft | 396 kts | 180° |
| 2026-05-08 10:54 | 12.56602 | 100.66487 | 27191 ft | 398 kts | 181° |
| 2026-05-08 10:54 | 12.53822 | 100.66414 | 27556 ft | 402 kts | 181° |
| 2026-05-08 10:54 | 12.51011 | 100.66340 | 27914 ft | 406 kts | 181° |
| 2026-05-08 10:55 | 12.48177 | 100.66266 | 28295 ft | 409 kts | 180° |
| 2026-05-08 10:55 | 12.45321 | 100.66192 | 28668 ft | 412 kts | 181° |
| 2026-05-08 10:55 | 12.42445 | 100.66116 | 29035 ft | 415 kts | 180° |
| 2026-05-08 10:55 | 12.39544 | 100.66041 | 29388 ft | 419 kts | 180° |
| 2026-05-08 10:56 | 12.36618 | 100.65965 | 29732 ft | 422 kts | 180° |
| 2026-05-08 10:56 | 12.33677 | 100.65846 | 30075 ft | 424 kts | 182° |
| 2026-05-08 10:56 | 12.30722 | 100.65666 | 30403 ft | 426 kts | 183° |
| 2026-05-08 10:56 | 12.27758 | 100.65463 | 30728 ft | 428 kts | 183° |
| 2026-05-08 10:57 | 12.24774 | 100.65254 | 30824 ft | 434 kts | 183° |
| 2026-05-08 10:57 | 12.15631 | 100.64641 | 30827 ft | 437 kts | 183° |
| 2026-05-08 10:58 | 12.09623 | 100.64259 | 30836 ft | 430 kts | 183° |
| 2026-05-08 10:58 | 12.03556 | 100.63878 | 30857 ft | 444 kts | 183° |
| 2026-05-08 10:59 | 11.97295 | 100.63486 | 30861 ft | 457 kts | 183° |
| 2026-05-08 10:59 | 11.90888 | 100.63084 | 30847 ft | 461 kts | 183° |
| 2026-05-08 11:00 | 11.84538 | 100.62685 | 30846 ft | 460 kts | 183° |
| 2026-05-08 11:00 | 11.78148 | 100.62284 | 30848 ft | 459 kts | 182° |
| 2026-05-08 11:01 | 11.71774 | 100.61884 | 30849 ft | 459 kts | 183° |
| 2026-05-08 11:01 | 11.65408 | 100.61485 | 30848 ft | 458 kts | 183° |
| 2026-05-08 11:02 | 11.55868 | 100.60888 | 30850 ft | 458 kts | 182° |
| 2026-05-08 11:03 | 11.49512 | 100.60490 | 30849 ft | 458 kts | 183° |
| 2026-05-08 11:03 | 11.43154 | 100.60092 | 30849 ft | 458 kts | 183° |
| 2026-05-08 11:04 | 11.36792 | 100.59694 | 30849 ft | 458 kts | 182° |
| 2026-05-08 11:04 | 11.30428 | 100.59297 | 30850 ft | 458 kts | 182° |
| 2026-05-08 11:05 | 11.24062 | 100.58899 | 30832 ft | 457 kts | 182° |
| 2026-05-08 11:05 | 11.20898 | 100.58701 | 30466 ft | 454 kts | 182° |
| 2026-05-08 11:05 | 11.17770 | 100.58505 | 30080 ft | 448 kts | 182° |
| 2026-05-08 11:05 | 11.14670 | 100.58311 | 29597 ft | 445 kts | 182° |
| 2026-05-08 11:06 | 11.11594 | 100.58119 | 29093 ft | 441 kts | 182° |
| 2026-05-08 11:06 | 11.08546 | 100.57929 | 28599 ft | 437 kts | 182° |
| 2026-05-08 11:06 | 11.05524 | 100.57740 | 28119 ft | 433 kts | 182° |
| 2026-05-08 11:06 | 11.02526 | 100.57553 | 27647 ft | 429 kts | 182° |
| 2026-05-08 11:07 | 10.99557 | 100.57368 | 27183 ft | 426 kts | 182° |
| 2026-05-08 11:07 | 10.96611 | 100.57184 | 26704 ft | 423 kts | 182° |
| 2026-05-08 11:07 | 10.93686 | 100.57002 | 26252 ft | 420 kts | 182° |
| 2026-05-08 11:07 | 10.90782 | 100.56821 | 25794 ft | 417 kts | 182° |
| 2026-05-08 11:08 | 10.87899 | 100.56641 | 25324 ft | 414 kts | 182° |
| 2026-05-08 11:08 | 10.85032 | 100.56463 | 24871 ft | 412 kts | 182° |
| 2026-05-08 11:08 | 10.82181 | 100.56285 | 24404 ft | 410 kts | 182° |
| 2026-05-08 11:08 | 10.79344 | 100.56109 | 23953 ft | 407 kts | 182° |
| 2026-05-08 11:09 | 10.76558 | 100.55935 | 23498 ft | 405 kts | 182° |
| 2026-05-08 11:09 | 10.73750 | 100.55760 | 22978 ft | 403 kts | 182° |
| 2026-05-08 11:09 | 10.70978 | 100.55587 | 22489 ft | 394 kts | 182° |
| 2026-05-08 11:09 | 10.68278 | 100.55419 | 22034 ft | 383 kts | 182° |
| 2026-05-08 11:10 | 10.65651 | 100.55254 | 21602 ft | 373 kts | 182° |
| 2026-05-08 11:10 | 10.63089 | 100.55094 | 21186 ft | 364 kts | 182° |
| 2026-05-08 11:10 | 10.60582 | 100.54938 | 20791 ft | 360 kts | 182° |
| 2026-05-08 11:10 | 10.58089 | 100.54784 | 20395 ft | 358 kts | 182° |
| 2026-05-08 11:11 | 10.55606 | 100.54630 | 19995 ft | 357 kts | 182° |
| 2026-05-08 11:11 | 10.53130 | 100.54476 | 19595 ft | 356 kts | 182° |
| 2026-05-08 11:11 | 10.50657 | 100.54323 | 19179 ft | 356 kts | 181° |
| 2026-05-08 11:11 | 10.48187 | 100.54170 | 18770 ft | 356 kts | 181° |
| 2026-05-08 11:12 | 10.45721 | 100.54017 | 18361 ft | 355 kts | 181° |
| 2026-05-08 11:12 | 10.43253 | 100.53863 | 17912 ft | 355 kts | 181° |
| 2026-05-08 11:12 | 10.40791 | 100.53711 | 17478 ft | 354 kts | 181° |
| 2026-05-08 11:12 | 10.38344 | 100.53558 | 17062 ft | 352 kts | 181° |
| 2026-05-08 11:13 | 10.35905 | 100.53407 | 16647 ft | 350 kts | 181° |
| 2026-05-08 11:13 | 10.33478 | 100.53256 | 16241 ft | 349 kts | 181° |
| 2026-05-08 11:13 | 10.31061 | 100.53106 | 15837 ft | 347 kts | 181° |
| 2026-05-08 11:13 | 10.28656 | 100.52957 | 15441 ft | 346 kts | 181° |
| 2026-05-08 11:14 | 10.26257 | 100.52808 | 15042 ft | 345 kts | 181° |
| 2026-05-08 11:14 | 10.23866 | 100.52659 | 14632 ft | 344 kts | 181° |
| 2026-05-08 11:14 | 10.21475 | 100.52511 | 14227 ft | 344 kts | 181° |
| 2026-05-08 11:14 | 10.19087 | 100.52363 | 13815 ft | 344 kts | 181° |
| 2026-05-08 11:15 | 10.16699 | 100.52215 | 13378 ft | 344 kts | 181° |
| 2026-05-08 11:15 | 10.14317 | 100.52067 | 12960 ft | 342 kts | 181° |
| 2026-05-08 11:15 | 10.11947 | 100.51920 | 12542 ft | 340 kts | 181° |
| 2026-05-08 11:15 | 10.09590 | 100.51774 | 12154 ft | 339 kts | 181° |
| 2026-05-08 11:16 | 10.07246 | 100.51629 | 11812 ft | 335 kts | 182° |
| 2026-05-08 11:16 | 10.04935 | 100.51485 | 11486 ft | 332 kts | 181° |
| 2026-05-08 11:16 | 10.02638 | 100.51342 | 11116 ft | 330 kts | 181° |
| 2026-05-08 11:16 | 10.00355 | 100.51201 | 10740 ft | 328 kts | 181° |
| 2026-05-08 11:17 | 9.98092 | 100.51061 | 10528 ft | 321 kts | 181° |
| 2026-05-08 11:17 | 9.95916 | 100.50925 | 10369 ft | 314 kts | 181° |
| 2026-05-08 11:17 | 9.93767 | 100.50791 | 10228 ft | 305 kts | 181° |
| 2026-05-08 11:17 | 9.91677 | 100.50661 | 10099 ft | 297 kts | 181° |
| 2026-05-08 11:18 | 9.89630 | 100.50535 | 9939 ft | 291 kts | 181° |
| 2026-05-08 11:18 | 9.87616 | 100.50410 | 9653 ft | 290 kts | 181° |
| 2026-05-08 11:18 | 9.85612 | 100.50287 | 9361 ft | 288 kts | 181° |
| 2026-05-08 11:18 | 9.83614 | 100.50164 | 9059 ft | 287 kts | 181° |
| 2026-05-08 11:19 | 9.81624 | 100.50041 | 8756 ft | 286 kts | 181° |
| 2026-05-08 11:19 | 9.79639 | 100.49918 | 8448 ft | 285 kts | 181° |
| 2026-05-08 11:19 | 9.77659 | 100.49796 | 8146 ft | 285 kts | 181° |
| 2026-05-08 11:19 | 9.75684 | 100.49674 | 7844 ft | 284 kts | 181° |
| 2026-05-08 11:20 | 9.73712 | 100.49552 | 7543 ft | 283 kts | 181° |
| 2026-05-08 11:20 | 9.71745 | 100.49430 | 7243 ft | 283 kts | 181° |
| 2026-05-08 11:20 | 9.69825 | 100.49026 | 6964 ft | 285 kts | 205° |
| 2026-05-08 11:20 | 9.68124 | 100.48008 | 6809 ft | 285 kts | 210° |
| 2026-05-08 11:21 | 9.66434 | 100.46940 | 6616 ft | 287 kts | 210° |
| 2026-05-08 11:21 | 9.64734 | 100.45866 | 6426 ft | 288 kts | 210° |
| 2026-05-08 11:21 | 9.63034 | 100.44796 | 6225 ft | 287 kts | 210° |
| 2026-05-08 11:21 | 9.61343 | 100.43736 | 6024 ft | 284 kts | 210° |
| 2026-05-08 11:22 | 9.59670 | 100.42691 | 5828 ft | 282 kts | 209° |
| 2026-05-08 11:22 | 9.57998 | 100.41649 | 5655 ft | 283 kts | 210° |
| 2026-05-08 11:22 | 9.56322 | 100.40606 | 5457 ft | 283 kts | 209° |
| 2026-05-08 11:22 | 9.55214 | 100.39916 | 5339 ft | 282 kts | 210° |
| 2026-05-08 11:23 | 9.53543 | 100.38877 | 5154 ft | 281 kts | 210° |
| 2026-05-08 11:23 | 9.51920 | 100.37777 | 5005 ft | 280 kts | 219° |
| 2026-05-08 11:23 | 9.50109 | 100.35954 | 4901 ft | 276 kts | 225° |
| 2026-05-08 11:23 | 9.48810 | 100.34523 | 4819 ft | 277 kts | 226° |
| 2026-05-08 11:24 | 9.47499 | 100.33083 | 4749 ft | 279 kts | 225° |
| 2026-05-08 11:24 | 9.46169 | 100.31637 | 4670 ft | 282 kts | 225° |
| 2026-05-08 11:24 | 9.45262 | 100.30661 | 4604 ft | 282 kts | 225° |
| 2026-05-08 11:24 | 9.43917 | 100.29220 | 4515 ft | 282 kts | 225° |
| 2026-05-08 11:25 | 9.42566 | 100.27782 | 4442 ft | 282 kts | 225° |
| 2026-05-08 11:25 | 9.41212 | 100.26345 | 4360 ft | 282 kts | 225° |
| 2026-05-08 11:25 | 9.39858 | 100.24911 | 4278 ft | 282 kts | 225° |
| 2026-05-08 11:25 | 9.38519 | 100.23495 | 4201 ft | 282 kts | 225° |
| 2026-05-08 11:26 | 9.37164 | 100.22063 | 4124 ft | 282 kts | 225° |
| 2026-05-08 11:26 | 9.35834 | 100.20606 | 4040 ft | 282 kts | 232° |
| 2026-05-08 11:26 | 9.35083 | 100.18797 | 3913 ft | 278 kts | 260° |
| 2026-05-08 11:26 | 9.34877 | 100.16882 | 3809 ft | 270 kts | 265° |
| 2026-05-08 11:27 | 9.34719 | 100.15039 | 3702 ft | 254 kts | 264° |
| 2026-05-08 11:27 | 9.34565 | 100.13309 | 3591 ft | 239 kts | 264° |
| 2026-05-08 11:27 | 9.34416 | 100.11687 | 3480 ft | 224 kts | 264° |
| 2026-05-08 11:27 | 9.34369 | 100.10157 | 3329 ft | 213 kts | 282° |
| 2026-05-08 11:28 | 9.35123 | 100.08951 | 3285 ft | 204 kts | 328° |
| 2026-05-08 11:28 | 9.36435 | 100.08417 | 3235 ft | 204 kts | 345° |
| 2026-05-08 11:28 | 9.37817 | 100.08061 | 3243 ft | 207 kts | 349° |
| 2026-05-08 11:28 | 9.39234 | 100.07766 | 3185 ft | 210 kts | 353° |
| 2026-05-08 11:29 | 9.40686 | 100.07596 | 2888 ft | 207 kts | 357° |
| 2026-05-08 11:29 | 9.42101 | 100.07467 | 2617 ft | 202 kts | 357° |
| 2026-05-08 11:29 | 9.43482 | 100.07337 | 2319 ft | 196 kts | 356° |
| 2026-05-08 11:29 | 9.44795 | 100.07209 | 2055 ft | 185 kts | 357° |
| 2026-05-08 11:30 | 9.46029 | 100.07090 | 1824 ft | 169 kts | 357° |
| 2026-05-08 11:30 | 9.47159 | 100.06981 | 1565 ft | 157 kts | 357° |
| 2026-05-08 11:30 | 9.48204 | 100.06881 | 1345 ft | 146 kts | 357° |
| 2026-05-08 11:30 | 9.49182 | 100.06787 | 1165 ft | 139 kts | 357° |
| 2026-05-08 11:31 | 9.50141 | 100.06692 | 951 ft | 139 kts | 358° |
| 2026-05-08 11:31 | 9.51100 | 100.06603 | 768 ft | 139 kts | 357° |
| 2026-05-08 11:31 | 9.52072 | 100.06504 | 553 ft | 142 kts | 356° |
| 2026-05-08 11:31 | 9.53069 | 100.06405 | 323 ft | 147 kts | 358° |
| 2026-05-08 11:32 | 9.54104 | 100.06311 | 104 ft | 148 kts | 358° |
| 2026-05-08 11:32 | 9.55040 | 100.06222 | 49 ft | 110 kts | 355° |
| 2026-05-08 11:32 | 9.55539 | 100.06173 | 52 ft | 33 kts | 354° |
| 2026-05-08 11:32 | 9.55690 | 100.06183 | 52 ft | 13 kts | 354° |
| 2026-05-08 11:33 | 9.55686 | 100.06137 | 52 ft | 10 kts | 178° |
| 2026-05-08 11:33 | 9.55593 | 100.06164 | 52 ft | 21 kts | 163° |
| 2026-05-08 11:33 | 9.55425 | 100.06183 | 52 ft | 25 kts | 175° |
| 2026-05-08 11:33 | 9.55297 | 100.06239 | 52 ft | 19 kts | 82° |
| 2026-05-08 11:34 | 9.55256 | 100.06291 | 52 ft | 11 kts | 197° |
| 2026-05-08 11:34 | 9.55185 | 100.06291 | 52 ft | 11 kts | 174° |
| 2026-05-08 11:34 | 9.55102 | 100.06300 | 52 ft | 9 kts | 174° |
| 2026-05-08 11:34 | 9.55081 | 100.06321 | 52 ft | 5 kts | 95° |
| 2026-05-08 11:35 | 9.55082 | 100.06341 | 52 ft | 0 kts | 83° |
| 2026-05-08 11:36 | 9.50905 | 100.06622 | 803 ft | 143 kts | 357° |
| 2026-05-08 11:36 | 9.50382 | 100.06670 | 679 ft | 149 kts | 356° |
| 2026-05-08 11:36 | 9.50170 | 100.06688 | 893 ft | 155 kts | 356° |
| 2026-05-08 11:36 | 9.52020 | 100.06505 | 1297 ft | 261 kts | 356° |
| 2026-05-08 11:37 | 9.53263 | 100.06401 | 343 ft | 275 kts | 358° |
| 2026-05-08 11:37 | 9.55159 | 100.06120 | 681 ft | 270 kts | 352° |
| 2026-05-08 11:37 | 9.56560 | 100.06568 | 1019 ft | 193 kts | 78° |
| 2026-05-08 11:37 | 9.56020 | 100.07570 | 705 ft | 183 kts | 162° |
| 2026-05-08 11:38 | 9.54772 | 100.07525 | 518 ft | 184 kts | 192° |
| 2026-05-08 11:38 | 9.53609 | 100.07099 | 459 ft | 175 kts | 222° |
| 2026-05-08 11:38 | 9.53318 | 100.05827 | 687 ft | 304 kts | 276° |
| 2026-05-08 11:38 | 9.53652 | 100.04114 | 877 ft | 280 kts | 290° |
| 2026-05-08 11:39 | 9.54407 | 100.02362 | 846 ft | 266 kts | 300° |
| 2026-05-08 11:39 | 9.55344 | 100.00733 | 477 ft | 267 kts | 304° |
| 2026-05-08 11:39 | 9.56486 | 99.99280 | 737 ft | 259 kts | 314° |
| 2026-05-08 11:39 | 9.57690 | 99.97939 | 1209 ft | 269 kts | 305° |